Terminal Aerodrome Forecast
Issued by NWS

Home | Current Version | Previous Version | Text Only | Print | Product List | Glossary On
Versions: 1 2 3 4 5 6 7 8 9 10 11 12 13 14
229
FTUS44 KLIX 301720
TAFMSY
TAF
KMSY 301720Z 3018/3118 02010KT P6SM FEW035 FEW250
     FM310300 VRB05KT P6SM FEW250=

USA.gov is the U.S. government's official web portal to all federal, state and local government web resources and services.